createdAt,value
2018-04-10T00:02:14.378Z,14.00
2018-04-10T00:04:41.276Z,14.30
2018-04-10T00:07:07.488Z,13.70
2018-04-10T00:09:33.562Z,13.23
2018-04-10T00:11:59.678Z,14.93
2018-04-10T00:14:25.918Z,14.70
2018-04-10T00:16:52.097Z,14.37
2018-04-10T00:19:18.202Z,14.57
2018-04-10T00:21:44.298Z,14.63
2018-04-10T00:24:10.424Z,14.13
2018-04-10T00:26:36.651Z,15.20
2018-04-10T00:29:02.802Z,14.80
2018-04-10T00:31:28.921Z,15.43
2018-04-10T00:33:55.046Z,14.47
2018-04-10T00:36:21.246Z,14.27
2018-04-10T00:38:47.347Z,14.03
2018-04-10T00:41:13.463Z,16.10
2018-04-10T00:43:39.665Z,14.60
2018-04-10T00:46:05.864Z,14.30
2018-04-10T00:48:32.730Z,13.97
2018-04-10T00:50:58.865Z,13.70
2018-04-10T00:53:36.209Z,13.63
2018-04-10T00:56:06.991Z,14.90
2018-04-10T00:58:33.135Z,14.17
2018-04-10T01:00:59.229Z,14.07
2018-04-10T01:03:25.430Z,15.90
2018-04-10T01:05:51.668Z,14.10
2018-04-10T01:08:17.831Z,14.23
2018-04-10T01:10:43.923Z,15.43
2018-04-10T01:13:10.056Z,16.17
2018-04-10T01:15:36.227Z,14.30
2018-04-10T01:18:02.425Z,14.80
2018-04-10T01:20:28.534Z,15.37
2018-04-10T01:22:54.637Z,15.97
2018-04-10T01:25:20.717Z,16.07
2018-04-10T01:27:46.825Z,15.00
2018-04-10T01:30:12.951Z,15.07
2018-04-10T01:32:39.076Z,14.47
2018-04-10T01:35:05.918Z,15.73
2018-04-10T01:37:32.014Z,15.00
2018-04-10T01:39:58.174Z,16.70
2018-04-10T01:42:24.330Z,15.90
2018-04-10T01:44:50.467Z,15.63
2018-04-10T01:47:17.325Z,17.43
2018-04-10T01:49:44.296Z,16.03
2018-04-10T01:52:10.384Z,15.10
2018-04-10T01:54:36.493Z,15.70
2018-04-10T01:57:02.598Z,16.87
2018-04-10T01:59:28.768Z,16.07
2018-04-10T02:01:54.931Z,16.70
2018-04-10T02:04:21.060Z,14.37
2018-04-10T02:06:47.200Z,15.33
2018-04-10T02:09:13.482Z,16.80
2018-04-10T02:11:39.636Z,15.53
2018-04-10T02:14:05.746Z,16.80
2018-04-10T02:16:31.938Z,18.77
2018-04-10T02:18:58.024Z,16.80
2018-04-10T02:21:24.226Z,16.73
2018-04-10T02:23:50.442Z,16.60
2018-04-10T02:26:16.545Z,15.53
2018-04-10T02:28:42.687Z,16.80
2018-04-10T02:31:08.819Z,15.90
2018-04-10T02:33:35.526Z,16.30
2018-04-10T02:36:01.742Z,15.60
2018-04-10T02:38:28.006Z,15.20
2018-04-10T02:40:54.150Z,15.13
2018-04-10T02:43:20.243Z,15.67
2018-04-10T02:45:46.354Z,15.67
2018-04-10T02:48:14.225Z,16.30
2018-04-10T02:50:40.342Z,15.13
2018-04-10T02:53:06.454Z,14.73
2018-04-10T02:55:32.569Z,16.60
2018-04-10T02:57:58.711Z,16.60
2018-04-10T03:00:24.801Z,14.43
2018-04-10T03:02:50.926Z,14.37
2018-04-10T03:05:17.030Z,16.40
2018-04-10T03:07:43.178Z,16.07
2018-04-10T03:10:09.295Z,15.07
2018-04-10T03:12:35.426Z,14.90
2018-04-10T03:15:01.622Z,15.50
2018-04-10T03:17:27.844Z,15.67
2018-04-10T03:19:54.290Z,16.40
2018-04-10T03:22:21.189Z,15.70
2018-04-10T03:24:48.097Z,15.10
2018-04-10T03:27:14.243Z,15.27
2018-04-10T03:29:40.449Z,14.03
2018-04-10T03:32:06.549Z,15.23
2018-04-10T03:34:32.695Z,15.87
2018-04-10T03:36:58.794Z,14.47
2018-04-10T03:39:24.935Z,15.60
2018-04-10T03:41:51.030Z,15.90
2018-04-10T03:44:17.130Z,16.43
2018-04-10T03:46:43.266Z,17.77
2018-04-10T03:49:10.142Z,14.90
2018-04-10T03:51:36.233Z,16.03
2018-04-10T03:54:02.449Z,15.80
2018-04-10T03:56:28.554Z,14.40
2018-04-10T03:58:54.699Z,14.47
2018-04-10T04:01:20.818Z,15.87
2018-04-10T04:03:46.925Z,15.90
2018-04-10T04:06:13.061Z,14.70
2018-04-10T04:08:43.554Z,14.37
2018-04-10T04:11:09.663Z,16.10
2018-04-10T04:13:35.787Z,15.80
2018-04-10T04:16:02.086Z,15.30
2018-04-10T04:18:40.525Z,15.33
2018-04-10T04:21:18.918Z,14.30
2018-04-10T04:23:45.065Z,14.60
2018-04-10T04:26:11.277Z,15.40
2018-04-10T04:28:37.382Z,14.57
2018-04-10T04:31:04.222Z,12.90
2018-04-10T04:33:30.357Z,15.17
2018-04-10T04:35:57.212Z,14.70
2018-04-10T04:38:23.313Z,13.70
2018-04-10T04:40:49.460Z,13.23
2018-04-10T04:43:15.694Z,13.70
2018-04-10T04:45:41.913Z,12.97
2018-04-10T04:48:08.073Z,15.77
2018-04-10T04:50:34.934Z,14.53
2018-04-10T04:53:01.048Z,14.70
2018-04-10T04:55:27.148Z,15.07
2018-04-10T04:57:53.274Z,13.83
2018-04-10T05:00:19.479Z,14.50
2018-04-10T05:02:45.705Z,14.80
2018-04-10T05:05:11.812Z,14.30
2018-04-10T05:07:37.952Z,14.33
2018-04-10T05:10:04.795Z,13.97
2018-04-10T05:12:31.650Z,13.40
2018-04-10T05:14:58.442Z,14.00
2018-04-10T05:17:24.560Z,14.47
2018-04-10T05:19:50.653Z,12.83
2018-04-10T05:22:16.778Z,14.63
2018-04-10T05:24:42.874Z,14.13
2018-04-10T05:27:09.766Z,13.90
2018-04-10T05:29:36.046Z,13.20
2018-04-10T05:32:02.230Z,13.87
2018-04-10T05:34:28.341Z,14.13
2018-04-10T05:36:54.510Z,15.03
2018-04-10T05:39:21.676Z,13.70
2018-04-10T05:41:48.612Z,14.80
2018-04-10T05:44:14.717Z,15.83
2018-04-10T05:46:40.851Z,15.23
2018-04-10T05:49:06.999Z,14.90
2018-04-10T05:51:33.088Z,15.70
2018-04-10T05:53:59.206Z,14.50
2018-04-10T05:56:25.307Z,15.00
2018-04-10T05:58:51.488Z,13.47
2018-04-10T06:01:18.344Z,13.53
2018-04-10T06:03:44.481Z,14.33
2018-04-10T06:06:11.449Z,12.97
2018-04-10T06:08:37.562Z,13.10
2018-04-10T06:11:03.882Z,13.37
2018-04-10T06:13:29.966Z,12.33
2018-04-10T06:15:56.085Z,13.40
2018-04-10T06:18:22.217Z,12.40
2018-04-10T06:20:48.434Z,13.10
2018-04-10T06:23:15.593Z,14.60
2018-04-10T06:25:42.478Z,13.83
2018-04-10T06:28:08.781Z,14.63
2018-04-10T06:30:34.902Z,13.07
2018-04-10T06:33:01.041Z,14.80
2018-04-10T06:35:27.176Z,14.27
2018-04-10T06:37:53.342Z,15.53
2018-04-10T06:40:19.609Z,11.80
2018-04-10T06:42:45.931Z,13.90
2018-04-10T06:45:12.102Z,13.97
2018-04-10T06:47:38.245Z,14.40
2018-04-10T06:50:04.343Z,13.63
2018-04-10T06:52:30.487Z,14.37
2018-04-10T06:54:56.584Z,14.43
2018-04-10T06:57:22.706Z,14.87
2018-04-10T06:59:48.823Z,14.40
2018-04-10T07:02:14.945Z,14.07
2018-04-10T07:04:41.076Z,15.30
2018-04-10T07:07:07.212Z,15.97
2018-04-10T07:09:33.352Z,16.20
2018-04-10T07:12:00.070Z,16.10
2018-04-10T07:14:26.187Z,15.30
2018-04-10T07:16:52.428Z,15.50
2018-04-10T07:19:18.601Z,15.70
2018-04-10T07:21:44.685Z,16.43
2018-04-10T07:24:10.807Z,18.70
2018-04-10T07:26:37.736Z,18.13
2018-04-10T07:29:03.889Z,16.90
2018-04-10T07:31:30.058Z,19.83
2018-04-10T07:33:56.298Z,20.53
2018-04-10T07:36:22.421Z,20.53
2018-04-10T07:38:48.561Z,20.50
2018-04-10T07:41:14.732Z,20.93
2018-04-10T07:43:40.869Z,21.93
2018-04-10T07:46:07.047Z,22.87
2018-04-10T07:48:33.945Z,23.30
2018-04-10T07:51:00.142Z,23.10
2018-04-10T07:53:26.278Z,20.40
2018-04-10T07:55:52.410Z,24.93
2018-04-10T07:58:18.552Z,24.23
2018-04-10T08:00:44.676Z,23.27
2018-04-10T08:03:10.790Z,28.93
2018-04-10T08:05:36.910Z,25.73
2018-04-10T08:08:03.066Z,25.97
2018-04-10T08:10:29.997Z,23.67
2018-04-10T08:12:56.171Z,22.10
2018-04-10T08:15:22.350Z,21.77
2018-04-10T08:17:48.441Z,21.80
2018-04-10T08:20:14.551Z,22.20
2018-04-10T08:22:40.653Z,22.67
2018-04-10T08:25:06.786Z,25.43
2018-04-10T08:27:32.883Z,24.27
2018-04-10T08:29:59.722Z,26.43
2018-04-10T08:32:26.571Z,27.17
2018-04-10T08:34:53.637Z,23.10
2018-04-10T08:37:19.806Z,27.87
2018-04-10T08:39:45.933Z,25.90
2018-04-10T08:42:12.197Z,25.80
2018-04-10T08:44:39.048Z,25.57
2018-04-10T08:47:05.174Z,22.87
2018-04-10T08:49:31.325Z,23.50
2018-04-10T08:51:57.557Z,25.50
2018-04-10T08:54:23.863Z,24.90
2018-04-10T08:56:49.979Z,24.40
2018-04-10T08:59:16.106Z,27.80
2018-04-10T09:01:42.251Z,27.00
2018-04-10T09:04:08.436Z,27.23
2018-04-10T09:06:34.624Z,24.20
2018-04-10T09:09:00.735Z,26.50
2018-04-10T09:11:26.902Z,23.93
2018-04-10T09:13:56.307Z,26.33
2018-04-10T09:16:23.151Z,24.50
2018-04-10T09:18:49.321Z,23.67
2018-04-10T09:21:15.411Z,24.53
2018-04-10T09:23:41.566Z,22.83
2018-04-10T09:26:07.773Z,21.27
2018-04-10T09:28:33.939Z,20.70
2018-04-10T09:31:00.234Z,23.13
2018-04-10T09:33:26.420Z,41.93
2018-04-10T09:35:52.552Z,23.93
2018-04-10T09:38:18.666Z,21.00
2018-04-10T09:40:44.799Z,22.07
2018-04-10T09:43:10.938Z,22.87
2018-04-10T09:45:37.049Z,22.37
2018-04-10T09:48:03.182Z,21.47
2018-04-10T09:50:29.359Z,21.70
2018-04-10T09:52:56.394Z,20.20
2018-04-10T09:55:22.554Z,19.53
2018-04-10T09:57:48.706Z,17.50
2018-04-10T10:00:14.913Z,17.70
2018-04-10T10:02:41.087Z,19.27
2018-04-10T10:05:07.266Z,15.60
2018-04-10T10:07:34.286Z,12.70
2018-04-10T10:10:00.496Z,13.23
2018-04-10T10:12:26.642Z,8.23
2018-04-10T10:14:52.817Z,7.93
2018-04-10T10:17:19.705Z,8.20
2018-04-10T10:19:46.069Z,7.27
2018-04-10T10:22:12.224Z,9.50
2018-04-10T10:24:38.439Z,9.07
2018-04-10T10:27:05.214Z,7.00
2018-04-10T10:29:31.405Z,8.47
2018-04-10T10:31:57.652Z,8.23
2018-04-10T10:34:23.785Z,8.37
2018-04-10T10:36:49.969Z,7.77
2018-04-10T10:39:16.279Z,6.43
2018-04-10T10:41:42.447Z,6.20
2018-04-10T10:44:09.359Z,4.83
2018-04-10T10:46:35.618Z,5.30
2018-04-10T10:49:01.879Z,5.30
2018-04-10T10:51:28.141Z,3.77
2018-04-10T10:53:54.404Z,4.10
2018-04-10T10:56:20.614Z,3.27
2018-04-10T10:58:46.850Z,3.10
2018-04-10T11:01:13.075Z,2.93
2018-04-10T11:03:40.006Z,3.20
2018-04-10T11:06:06.224Z,3.37
2018-04-10T11:08:32.515Z,2.83
2018-04-10T11:10:58.925Z,3.20
2018-04-10T11:13:25.237Z,3.60
2018-04-10T11:15:54.795Z,3.00
2018-04-10T11:18:21.060Z,2.90
2018-04-10T11:20:47.219Z,2.93
2018-04-10T11:23:13.406Z,2.40
2018-04-10T11:25:39.578Z,2.67
2018-04-10T11:28:06.004Z,3.10
2018-04-10T11:30:32.233Z,3.03
2018-04-10T11:32:59.360Z,2.90
2018-04-10T11:35:26.318Z,2.80
2018-04-10T11:37:52.590Z,4.50
2018-04-10T11:40:18.739Z,2.37
2018-04-10T11:42:44.949Z,2.13
2018-04-10T11:45:11.113Z,1.93
2018-04-10T11:47:37.315Z,1.83
2018-04-10T11:50:03.491Z,1.70
2018-04-10T11:52:29.678Z,1.80
2018-04-10T11:54:57.078Z,1.80
2018-04-10T11:57:23.314Z,1.53
2018-04-10T11:59:49.506Z,1.50
2018-04-10T12:02:16.482Z,1.83
2018-04-10T12:04:43.685Z,1.60
2018-04-10T12:07:09.909Z,1.70
2018-04-10T12:09:36.170Z,1.80
2018-04-10T12:12:02.378Z,5.80
2018-04-10T12:14:28.627Z,2.00
2018-04-10T12:16:54.923Z,1.70
2018-04-10T12:19:21.147Z,2.03
2018-04-10T12:21:48.135Z,1.90
2018-04-10T12:24:14.351Z,2.00
2018-04-10T12:26:40.542Z,2.30
2018-04-10T12:29:06.737Z,2.10
2018-04-10T12:31:32.909Z,2.20
2018-04-10T12:33:59.046Z,1.80
2018-04-10T12:36:25.228Z,1.67
2018-04-10T12:38:51.333Z,1.93
2018-04-10T12:41:17.491Z,1.97
2018-04-10T12:43:43.891Z,2.00
2018-04-10T12:46:10.881Z,1.77
2018-04-10T12:48:37.040Z,2.30
2018-04-10T12:51:03.162Z,2.23
2018-04-10T12:53:29.310Z,2.27
2018-04-10T12:55:55.490Z,1.80
2018-04-10T12:58:21.622Z,2.00
2018-04-10T13:00:47.843Z,2.10
2018-04-10T13:03:14.074Z,2.10
2018-04-10T13:05:40.344Z,1.90
2018-04-10T13:08:06.636Z,2.27
2018-04-10T13:10:32.875Z,1.80
2018-04-10T13:12:59.135Z,1.90
2018-04-10T13:15:25.310Z,1.93
2018-04-10T13:17:51.457Z,2.10
2018-04-10T13:20:17.605Z,1.90
2018-04-10T13:22:43.771Z,1.77
2018-04-10T13:25:11.363Z,2.13
2018-04-10T13:27:37.673Z,2.10
2018-04-10T13:30:03.939Z,2.23
2018-04-10T13:32:30.199Z,2.20
2018-04-10T13:34:56.465Z,1.30
2018-04-10T13:37:22.727Z,1.90
2018-04-10T13:39:48.870Z,1.77
2018-04-10T13:42:15.006Z,1.90
2018-04-10T13:44:41.217Z,1.67
2018-04-10T13:47:08.281Z,1.90
2018-04-10T13:49:34.449Z,1.90
2018-04-10T13:52:00.615Z,1.90
2018-04-10T13:54:26.782Z,2.10
2018-04-10T13:56:53.629Z,2.30
2018-04-10T13:59:23.670Z,2.33
2018-04-10T14:01:49.885Z,1.90
2018-04-10T14:04:16.163Z,2.20
2018-04-10T14:06:42.300Z,2.00
2018-04-10T14:09:08.502Z,1.93
2018-04-10T14:11:34.623Z,1.63
2018-04-10T14:14:00.772Z,1.90
2018-04-10T14:16:27.937Z,2.20
2018-04-10T14:18:54.176Z,1.93
2018-04-10T14:21:20.370Z,2.53
2018-04-10T14:23:46.672Z,2.50
2018-04-10T14:26:12.898Z,2.40
2018-04-10T14:28:39.025Z,2.30
2018-04-10T14:31:05.405Z,2.50
2018-04-10T14:33:32.295Z,2.77
2018-04-10T14:35:58.416Z,2.03
2018-04-10T14:38:24.663Z,2.23
2018-04-10T14:40:50.888Z,2.43
2018-04-10T14:43:17.073Z,2.23
2018-04-10T14:45:43.171Z,2.30
2018-04-10T14:48:09.400Z,2.53
2018-04-10T14:50:35.572Z,2.10
2018-04-10T14:53:01.779Z,2.43
2018-04-10T14:55:28.668Z,2.47
2018-04-10T14:57:54.923Z,2.57
2018-04-10T15:00:21.903Z,2.20
2018-04-10T15:02:48.057Z,2.23
2018-04-10T15:05:14.198Z,2.60
2018-04-10T15:07:40.376Z,3.40
2018-04-10T15:10:06.511Z,4.70
2018-04-10T15:12:33.376Z,4.50
2018-04-10T15:14:59.519Z,4.03
2018-04-10T15:17:25.656Z,2.60
2018-04-10T15:19:51.890Z,2.90
2018-04-10T15:22:18.871Z,2.30
2018-04-10T15:24:45.004Z,2.57
2018-04-10T15:27:11.201Z,3.27
2018-04-10T15:29:38.150Z,1.90
2018-04-10T15:32:04.338Z,1.83
2018-04-10T15:34:30.559Z,1.93
2018-04-10T15:36:56.754Z,2.33
2018-04-10T15:39:23.026Z,2.60
2018-04-10T15:41:49.224Z,1.97
2018-04-10T15:44:15.422Z,2.40
2018-04-10T15:46:41.782Z,1.90
2018-04-10T15:49:07.966Z,2.17
2018-04-10T15:51:34.761Z,2.07
2018-04-10T15:54:01.087Z,2.23
2018-04-10T15:56:27.326Z,2.00
2018-04-10T15:58:53.498Z,2.20
2018-04-10T16:01:19.707Z,1.90
2018-04-10T16:03:46.323Z,2.37
2018-04-10T16:06:12.459Z,1.87
2018-04-10T16:08:38.659Z,2.07
2018-04-10T16:11:08.767Z,2.00
2018-04-10T16:13:34.993Z,1.80
2018-04-10T16:16:02.174Z,1.90
2018-04-10T16:18:28.371Z,2.10
2018-04-10T16:20:54.591Z,2.60
2018-04-10T16:23:21.685Z,2.10
2018-04-10T16:25:47.858Z,1.93
2018-04-10T16:28:14.001Z,1.80
2018-04-10T16:30:40.145Z,2.33
2018-04-10T16:33:06.315Z,2.43
2018-04-10T16:35:32.612Z,2.40
2018-04-10T16:37:58.746Z,2.20
2018-04-10T16:40:24.961Z,2.47
2018-04-10T16:42:51.854Z,2.37
2018-04-10T16:45:17.978Z,2.60
2018-04-10T16:47:44.156Z,3.60
2018-04-10T16:50:11.044Z,3.90
2018-04-10T16:52:38.617Z,3.67
2018-04-10T16:55:04.742Z,3.67
2018-04-10T16:57:31.137Z,3.60
2018-04-10T16:59:57.304Z,3.57
2018-04-10T17:02:23.501Z,3.03
2018-04-10T17:04:49.623Z,3.80
2018-04-10T17:07:15.759Z,3.20
2018-04-10T17:09:41.927Z,3.20
2018-04-10T17:12:09.150Z,3.23
2018-04-10T17:14:40.364Z,3.60
2018-04-10T17:17:06.774Z,3.23
2018-04-10T17:19:33.087Z,2.83
2018-04-10T17:21:59.258Z,2.60
2018-04-10T17:24:25.660Z,2.77
2018-04-10T17:26:52.739Z,2.33
2018-04-10T17:29:19.014Z,2.67
2018-04-10T17:31:45.218Z,2.60
2018-04-10T17:34:11.364Z,2.10
2018-04-10T17:36:37.506Z,2.50
2018-04-10T17:39:04.784Z,2.40
2018-04-10T17:41:31.116Z,2.30
2018-04-10T17:43:57.291Z,2.23
2018-04-10T17:46:23.475Z,2.10
2018-04-10T17:48:49.636Z,2.43
2018-04-10T17:51:15.762Z,2.20
2018-04-10T17:53:41.962Z,2.50
2018-04-10T17:56:08.178Z,2.20
2018-04-10T17:58:34.374Z,2.20
2018-04-10T18:01:01.263Z,2.13
2018-04-10T18:03:27.394Z,2.97
2018-04-10T18:05:53.567Z,2.00
2018-04-10T18:08:20.550Z,1.90
2018-04-10T18:10:46.864Z,1.93
2018-04-10T18:13:13.159Z,2.00
2018-04-10T18:15:39.342Z,2.00
2018-04-10T18:18:05.539Z,1.73
2018-04-10T18:20:31.791Z,1.80
2018-04-10T18:22:57.958Z,1.50
2018-04-10T18:25:24.142Z,2.00
2018-04-10T18:27:50.295Z,2.20
2018-04-10T18:30:16.454Z,2.53
2018-04-10T18:32:42.698Z,2.23
2018-04-10T18:35:08.912Z,1.90
2018-04-10T18:37:35.279Z,1.60
2018-04-10T18:40:01.767Z,1.83
2018-04-10T18:42:28.054Z,1.50
2018-04-10T18:44:54.221Z,1.83
2018-04-10T18:47:21.131Z,1.60
2018-04-10T18:49:47.402Z,1.93
2018-04-10T18:52:13.639Z,1.40
2018-04-10T18:54:39.866Z,1.40
2018-04-10T18:57:06.285Z,1.67
2018-04-10T18:59:33.212Z,1.70
2018-04-10T19:01:59.383Z,1.70
2018-04-10T19:04:26.740Z,1.70
2018-04-10T19:06:52.970Z,1.60
2018-04-10T19:09:19.199Z,1.50
2018-04-10T19:11:45.528Z,1.60
2018-04-10T19:14:11.672Z,1.67
2018-04-10T19:16:37.854Z,2.03
2018-04-10T19:19:04.746Z,1.67
2018-04-10T19:21:31.072Z,1.30
2018-04-10T19:23:57.384Z,1.50
2018-04-10T19:26:52.594Z,1.70
2018-04-10T19:29:19.126Z,1.27
2018-04-10T19:31:45.366Z,1.43
2018-04-10T19:34:13.160Z,1.40
2018-04-10T19:36:40.176Z,1.20
2018-04-10T19:39:07.607Z,1.30
2018-04-10T19:44:11.268Z,0.97
2018-04-10T19:46:38.655Z,0.80
2018-04-10T19:49:05.244Z,1.20
2018-04-10T19:51:32.024Z,1.30
2018-04-10T19:53:58.645Z,0.93
2018-04-10T19:56:24.886Z,1.00
2018-04-10T19:58:51.098Z,1.17
2018-04-10T20:01:18.309Z,0.93
2018-04-10T20:03:44.622Z,1.00
2018-04-10T20:06:11.207Z,1.10
2018-04-10T20:08:37.743Z,0.90
2018-04-10T20:11:04.095Z,1.30
2018-04-10T20:13:31.073Z,1.30
2018-04-10T20:15:58.623Z,1.13
2018-04-10T20:18:25.191Z,0.90
2018-04-10T20:20:56.217Z,1.60
2018-04-10T20:23:25.563Z,1.40
2018-04-10T20:25:53.148Z,1.30
2018-04-10T20:28:20.824Z,1.60
2018-04-10T20:30:48.422Z,1.40
2018-04-10T20:33:14.703Z,1.50
2018-04-10T20:35:41.955Z,1.57
2018-04-10T20:38:08.114Z,2.00
2018-04-10T20:40:34.950Z,1.57
2018-04-10T20:43:01.759Z,1.83
2018-04-10T20:45:28.747Z,1.67
2018-04-10T20:47:56.493Z,1.50
2018-04-10T20:50:22.897Z,1.90
2018-04-10T20:52:49.153Z,1.87
2018-04-10T20:55:16.234Z,1.70
2018-04-10T20:57:43.388Z,1.50
2018-04-10T21:00:09.669Z,1.50
2018-04-10T21:02:38.863Z,1.87
2018-04-10T21:05:05.936Z,1.60
2018-04-10T21:07:32.464Z,1.37
2018-04-10T21:09:59.409Z,2.10
2018-04-10T21:12:30.190Z,1.83
2018-04-10T21:14:56.367Z,2.30
2018-04-10T21:17:22.660Z,2.00
2018-04-10T21:19:49.634Z,2.30
2018-04-10T21:22:15.854Z,2.20
2018-04-10T21:24:42.890Z,1.40
2018-04-10T21:27:09.003Z,2.50
2018-04-10T21:29:35.292Z,2.07
2018-04-10T21:32:01.431Z,2.07
2018-04-10T21:34:27.547Z,2.00
2018-04-10T21:36:54.442Z,2.50
2018-04-10T21:39:20.574Z,2.67
2018-04-10T21:41:46.686Z,2.07
2018-04-10T21:44:13.570Z,2.70
2018-04-10T21:46:39.708Z,2.37
2018-04-10T21:49:05.840Z,3.47
2018-04-10T21:51:33.028Z,3.00
2018-04-10T21:53:59.154Z,2.97
2018-04-10T21:56:25.329Z,2.00
2018-04-10T21:58:51.530Z,2.40
2018-04-10T22:01:17.710Z,2.03
2018-04-10T22:03:43.809Z,2.13
2018-04-10T22:06:10.070Z,1.97
2018-04-10T22:08:37.062Z,2.40
2018-04-10T22:11:03.182Z,2.17
2018-04-10T22:13:31.434Z,2.70
2018-04-10T22:15:57.600Z,2.57
2018-04-10T22:18:24.141Z,2.53
2018-04-10T22:20:50.751Z,2.10
2018-04-10T22:23:18.871Z,2.30
2018-04-10T22:25:45.120Z,2.53
2018-04-10T22:28:11.293Z,2.40
2018-04-10T22:30:37.493Z,2.80
2018-04-10T22:33:03.634Z,2.40
2018-04-10T22:35:29.783Z,2.67
2018-04-10T22:37:56.004Z,2.23
2018-04-10T22:40:22.162Z,2.53
2018-04-10T22:42:48.299Z,2.87
2018-04-10T22:45:14.495Z,2.90
2018-04-10T22:47:42.088Z,2.63
2018-04-10T22:50:08.408Z,2.20
2018-04-10T22:52:36.755Z,2.50
2018-04-10T22:55:03.031Z,3.40
2018-04-10T22:57:29.223Z,2.50
2018-04-10T22:59:55.349Z,2.93
2018-04-10T23:02:21.450Z,2.93
2018-04-10T23:04:47.626Z,2.90
2018-04-10T23:07:13.823Z,3.23
2018-04-10T23:09:39.959Z,3.50
2018-04-10T23:12:06.109Z,2.93
2018-04-10T23:14:32.213Z,3.10
2018-04-10T23:16:58.347Z,3.10
2018-04-10T23:19:25.112Z,3.10
2018-04-10T23:21:51.299Z,2.40
2018-04-10T23:24:17.403Z,2.67
2018-04-10T23:26:43.515Z,2.83
2018-04-10T23:29:09.653Z,2.83
2018-04-10T23:31:35.778Z,2.80
2018-04-10T23:34:01.910Z,2.30
2018-04-10T23:36:28.062Z,2.70
2018-04-10T23:38:54.177Z,2.90
2018-04-10T23:41:21.051Z,2.10
2018-04-10T23:43:47.207Z,3.00
2018-04-10T23:46:13.425Z,3.00
2018-04-10T23:48:39.620Z,2.80
2018-04-10T23:51:05.714Z,2.73
2018-04-10T23:53:31.881Z,2.67
2018-04-10T23:55:58.642Z,3.10
2018-04-10T23:58:24.800Z,2.67
